Time;durP1;ratioP1;P1;durP2;ratioP2;P2;SDS_P1;SDS_P2;PMS_P1;PMS_P2;Temp;Humidity;BMP_temperature;BMP_pressure;BME280_temperature;BME280_humidity;BME280_pressure;Samples;Min_cycle;Max_cycle;Signal;HPM_P1;HPM_P2
2022/06/19 00:02:25;;;;;;;9.20;5.57;;;24.00;85.80;;;;;;4955082;28;20432;-64
2022/06/19 00:04:54;;;;;;;7.77;4.97;;;24.00;85.10;;;;;;4954083;28;20463;-64
2022/06/19 00:07:20;;;;;;;12.77;4.83;;;23.90;84.80;;;;;;4953315;28;20480;-64
2022/06/19 00:09:45;;;;;;;11.10;6.30;;;23.90;86.50;;;;;;4953546;28;20443;-64
2022/06/19 00:12:14;;;;;;;11.37;5.37;;;23.80;86.50;;;;;;4956054;28;20436;-64
2022/06/19 00:14:39;;;;;;;10.33;6.03;;;23.80;86.10;;;;;;4954358;28;20742;-64
2022/06/19 00:17:06;;;;;;;6.97;5.17;;;23.80;85.80;;;;;;4953418;28;20440;-65
2022/06/19 00:19:33;;;;;;;13.50;5.87;;;23.70;85.60;;;;;;4954622;28;20177;-64
2022/06/19 00:21:58;;;;;;;14.83;5.47;;;23.70;84.00;;;;;;4954863;28;20493;-64
2022/06/19 00:24:24;;;;;;;13.47;6.30;;;23.70;86.00;;;;;;4952992;28;20892;-64
2022/06/19 00:26:49;;;;;;;16.47;7.63;;;23.70;84.40;;;;;;4954141;28;20211;-64
2022/06/19 00:29:15;;;;;;;10.97;6.80;;;23.60;84.60;;;;;;4953913;28;20185;-64
2022/06/19 00:31:40;;;;;;;12.10;7.03;;;23.70;84.70;;;;;;4954079;28;20173;-65
2022/06/19 00:34:06;;;;;;;16.03;6.63;;;23.60;85.60;;;;;;4953624;28;20621;-65
2022/06/19 00:36:32;;;;;;;14.43;6.50;;;23.60;85.10;;;;;;4953804;28;20181;-65
2022/06/19 00:38:58;;;;;;;14.13;5.80;;;23.60;85.10;;;;;;4953162;28;20184;-65
2022/06/19 00:41:25;;;;;;;12.10;5.50;;;23.50;85.80;;;;;;4957076;28;20950;-65
2022/06/19 00:43:59;;;;;;;17.03;7.10;;;23.40;84.70;;;;;;4953482;28;20679;-65
2022/06/19 00:46:43;;;;;;;13.20;5.90;;;23.30;84.60;;;;;;4951182;28;20475;-65
2022/06/19 00:49:13;;;;;;;15.47;6.63;;;23.30;87.30;;;;;;4953275;28;20668;-65
2022/06/19 00:51:39;;;;;;;11.57;6.13;;;23.20;87.60;;;;;;4952615;28;20436;-65
2022/06/19 00:54:06;;;;;;;11.90;5.77;;;23.10;89.00;;;;;;4951528;28;20472;-65
2022/06/19 00:56:32;;;;;;;16.87;5.80;;;23.10;89.90;;;;;;4956816;28;20584;-65
2022/06/19 00:58:58;;;;;;;7.80;5.63;;;23.10;89.60;;;;;;4954425;28;20447;-65
2022/06/19 01:01:27;;;;;;;11.73;5.37;;;23.10;89.50;;;;;;4953393;28;20448;-64
2022/06/19 01:03:58;;;;;;;10.50;6.43;;;23.00;90.20;;;;;;4955557;28;20461;-64
2022/06/19 01:06:26;;;;;;;8.50;5.60;;;22.90;90.20;;;;;;4951625;28;20560;-64
2022/06/19 01:08:52;;;;;;;7.43;4.90;;;22.80;90.50;;;;;;4951841;28;20444;-65
2022/06/19 01:11:20;;;;;;;12.63;5.57;;;22.90;90.50;;;;;;4953185;28;20527;-65
2022/06/19 01:13:46;;;;;;;10.70;7.67;;;22.90;90.20;;;;;;4952134;28;20511;-65
2022/06/19 01:16:13;;;;;;;10.50;6.13;;;22.80;90.50;;;;;;4952306;28;20891;-65
2022/06/19 01:18:39;;;;;;;11.53;6.00;;;22.90;91.00;;;;;;4950816;28;20439;-65
2022/06/19 01:21:13;;;;;;;6.10;4.90;;;22.80;90.50;;;;;;4952957;28;20440;-65
2022/06/19 01:24:09;;;;;;;9.23;5.40;;;22.70;91.70;;;;;;4950678;28;20463;-65
2022/06/19 01:26:43;;;;;;;11.23;6.70;;;22.60;91.80;;;;;;4948598;28;20460;-65
2022/06/19 01:29:09;;;;;;;14.93;5.77;;;22.70;91.50;;;;;;4952189;28;20454;-65
2022/06/19 01:31:41;;;;;;;11.27;5.47;;;22.70;91.40;;;;;;4957003;28;20440;-65
2022/06/19 01:34:29;;;;;;;8.43;5.10;;;22.60;91.80;;;;;;4952817;28;20200;-65
2022/06/19 01:37:03;;;;;;;11.80;5.77;;;22.60;92.00;;;;;;4955068;28;20831;-65
2022/06/19 01:39:34;;;;;;;10.07;5.60;;;22.60;91.90;;;;;;4951216;28;20467;-65
2022/06/19 01:42:01;;;;;;;7.97;5.53;;;22.50;92.40;;;;;;4947896;28;20448;-65
2022/06/19 01:44:27;;;;;;;13.63;5.17;;;22.50;92.40;;;;;;4952314;28;20468;-65
2022/06/19 01:46:53;;;;;;;9.10;5.47;;;22.60;92.40;;;;;;4951743;28;21089;-65
2022/06/19 01:49:19;;;;;;;6.30;4.50;;;22.60;91.40;;;;;;4953024;28;20185;-64
2022/06/19 01:51:44;;;;;;;13.83;5.57;;;22.50;92.60;;;;;;4954476;28;20433;-64
2022/06/19 01:54:25;;;;;;;9.60;5.57;;;22.50;92.70;;;;;;4952176;28;20287;-64
2022/06/19 01:56:54;;;;;;;15.23;5.40;;;22.40;92.70;;;;;;4953815;28;20195;-65
2022/06/19 01:59:23;;;;;;;9.13;4.20;;;22.40;92.20;;;;;;4951006;28;20460;-65
2022/06/19 02:01:53;;;;;;;10.83;5.83;;;22.50;90.50;;;;;;4960589;28;20467;-65
2022/06/19 02:04:19;;;;;;;7.93;4.70;;;22.70;90.00;;;;;;4950150;28;20559;-65
2022/06/19 02:06:48;;;;;;;7.00;4.87;;;22.80;88.80;;;;;;4950230;28;20468;-65
2022/06/19 02:09:17;;;;;;;13.63;7.03;;;22.90;88.70;;;;;;4950995;28;21902;-65
2022/06/19 02:11:42;;;;;;;16.33;6.60;;;22.90;88.30;;;;;;4951063;28;20503;-65
2022/06/19 02:14:11;;;;;;;10.20;5.77;;;23.00;87.10;;;;;;4950924;28;20483;-65
2022/06/19 02:16:40;;;;;;;13.33;6.33;;;22.90;88.50;;;;;;4952462;28;20193;-65
2022/06/19 02:19:07;;;;;;;17.23;7.60;;;23.00;88.20;;;;;;4950496;28;20491;-65
2022/06/19 02:21:40;;;;;;;10.63;5.17;;;22.90;87.70;;;;;;4951070;28;20444;-65
2022/06/19 02:24:07;;;;;;;12.53;7.23;;;22.90;87.80;;;;;;4952671;28;20969;-64
2022/06/19 02:26:36;;;;;;;12.47;5.77;;;22.90;88.10;;;;;;4953946;28;21050;-64
2022/06/19 02:29:06;;;;;;;10.63;5.67;;;23.00;88.90;;;;;;4952678;28;20458;-65
2022/06/19 02:31:33;;;;;;;12.07;5.10;;;23.00;88.60;;;;;;4952498;28;20472;-65
2022/06/19 02:34:04;;;;;;;8.43;5.00;;;23.00;87.40;;;;;;4950628;28;20500;-64
2022/06/19 02:36:35;;;;;;;13.30;5.13;;;23.00;87.80;;;;;;4952431;28;20861;-65
2022/06/19 02:39:17;;;;;;;6.50;4.77;;;23.00;87.90;;;;;;4950839;28;21013;-65
2022/06/19 02:42:02;;;;;;;12.27;4.70;;;22.80;89.00;;;;;;4949375;28;20448;-65
2022/06/19 02:44:40;;;;;;;6.37;4.27;;;22.80;88.60;;;;;;4951601;28;20496;-65
2022/06/19 02:47:07;;;;;;;9.63;5.17;;;22.70;88.90;;;;;;4949870;28;20538;-65
2022/06/19 02:49:33;;;;;;;11.03;5.03;;;22.70;90.10;;;;;;4951892;28;20437;-65
2022/06/19 02:52:00;;;;;;;9.20;5.93;;;22.70;90.10;;;;;;4951084;28;20508;-65
2022/06/19 02:54:26;;;;;;;7.30;5.37;;;22.60;90.20;;;;;;4951205;28;20563;-65
2022/06/19 02:56:51;;;;;;;6.10;4.40;;;22.70;90.10;;;;;;4951779;28;20876;-65
2022/06/19 02:59:17;;;;;;;11.20;4.93;;;22.70;90.20;;;;;;4951577;28;20272;-65
2022/06/19 03:01:42;;;;;;;12.03;6.80;;;22.70;90.00;;;;;;4951183;28;20184;-65
2022/06/19 03:04:18;;;;;;;11.53;6.30;;;22.70;90.30;;;;;;4954002;28;20196;-65
2022/06/19 03:06:44;;;;;;;8.87;6.67;;;22.70;90.00;;;;;;4952023;28;20247;-65
2022/06/19 03:09:09;;;;;;;9.97;5.50;;;22.70;90.00;;;;;;4949743;28;20958;-65
2022/06/19 03:11:35;;;;;;;11.13;4.57;;;22.70;90.20;;;;;;4956152;28;20173;-65
2022/06/19 03:14:00;;;;;;;7.83;5.90;;;22.70;90.10;;;;;;4950826;28;20621;-65
2022/06/19 03:16:26;;;;;;;10.40;5.87;;;22.70;90.10;;;;;;4951486;28;20196;-65
2022/06/19 03:18:52;;;;;;;11.43;5.97;;;22.60;91.30;;;;;;4950980;28;20192;-65
2022/06/19 03:21:18;;;;;;;8.43;5.23;;;22.50;92.40;;;;;;4950040;28;20527;-65
2022/06/19 03:23:44;;;;;;;8.13;6.07;;;22.20;93.70;;;;;;4947650;28;20600;-65
2022/06/19 03:26:09;;;;;;;9.90;6.10;;;22.10;94.80;;;;;;4949629;28;20468;-65
2022/06/19 03:28:35;;;;;;;10.90;6.73;;;22.00;95.00;;;;;;4954450;28;20732;-65
2022/06/19 03:31:00;;;;;;;7.57;4.87;;;22.00;95.20;;;;;;4953442;28;20181;-65
2022/06/19 03:33:26;;;;;;;8.37;5.80;;;22.10;94.80;;;;;;4949286;28;20189;-65
2022/06/19 03:35:52;;;;;;;8.20;6.00;;;22.00;95.10;;;;;;4953839;28;20246;-65
2022/06/19 03:38:18;;;;;;;7.43;5.17;;;22.00;95.30;;;;;;4963682;28;20665;-65
2022/06/19 03:40:44;;;;;;;11.27;5.13;;;22.00;93.90;;;;;;4956509;28;20474;-65
2022/06/19 03:43:10;;;;;;;10.70;5.70;;;22.10;93.80;;;;;;4953705;28;20259;-65
2022/06/19 03:45:36;;;;;;;13.63;6.20;;;22.20;93.60;;;;;;4954194;28;20220;-65
2022/06/19 03:48:02;;;;;;;8.30;5.70;;;22.30;94.10;;;;;;4953787;28;20443;-65
2022/06/19 03:50:28;;;;;;;12.17;6.40;;;22.30;93.20;;;;;;4953437;28;20448;-65
2022/06/19 03:52:53;;;;;;;11.13;5.10;;;22.30;93.60;;;;;;4956446;28;20221;-65
2022/06/19 03:55:19;;;;;;;11.53;5.60;;;22.30;92.60;;;;;;4953577;28;20184;-65
2022/06/19 03:57:44;;;;;;;13.57;5.50;;;22.30;92.60;;;;;;4950665;28;20667;-64
2022/06/19 04:00:15;;;;;;;18.03;5.40;;;22.30;92.60;;;;;;4953632;28;20219;-65
2022/06/19 04:02:41;;;;;;;9.80;6.67;;;22.20;92.40;;;;;;4954416;28;20181;-64
2022/06/19 04:05:07;;;;;;;12.23;5.27;;;22.30;93.10;;;;;;4954300;28;21052;-65
2022/06/19 04:07:32;;;;;;;8.27;4.53;;;22.40;92.40;;;;;;4962088;28;20474;-64
2022/06/19 04:10:00;;;;;;;14.53;5.60;;;22.50;92.10;;;;;;4961204;28;20531;-66
2022/06/19 04:12:25;;;;;;;9.67;4.70;;;22.60;92.20;;;;;;4961783;28;20183;-65
2022/06/19 04:14:52;;;;;;;9.53;5.20;;;22.70;91.80;;;;;;4962295;28;20459;-63
2022/06/19 04:17:17;;;;;;;10.30;4.97;;;22.70;91.60;;;;;;4959470;28;20208;-63
2022/06/19 04:19:43;;;;;;;11.30;4.80;;;22.80;91.80;;;;;;4958992;28;20883;-65
2022/06/19 04:22:09;;;;;;;11.50;6.07;;;22.80;91.80;;;;;;4960819;28;20196;-63
2022/06/19 04:24:34;;;;;;;10.73;4.90;;;22.90;91.60;;;;;;4951151;28;20267;-64
2022/06/19 04:27:04;;;;;;;15.50;5.27;;;22.90;91.60;;;;;;4949457;28;20212;-65
2022/06/19 04:29:30;;;;;;;11.40;5.03;;;22.90;91.70;;;;;;4951133;28;20213;-64
2022/06/19 04:31:56;;;;;;;9.50;5.60;;;23.00;92.00;;;;;;4954065;28;20843;-64
2022/06/19 04:34:22;;;;;;;9.43;5.70;;;23.10;92.00;;;;;;4954711;28;20197;-65
2022/06/19 04:36:47;;;;;;;10.80;4.93;;;23.20;92.80;;;;;;4955257;28;20191;-66
2022/06/19 04:39:13;;;;;;;9.30;4.73;;;23.40;92.60;;;;;;4953895;28;20444;-65
2022/06/19 04:41:43;;;;;;;11.10;4.80;;;23.60;92.70;;;;;;4953263;28;20209;-64
2022/06/19 04:44:12;;;;;;;12.57;5.27;;;23.70;92.90;;;;;;4954007;28;20685;-64
2022/06/19 04:46:39;;;;;;;7.77;4.67;;;23.90;93.30;;;;;;4953964;28;20472;-65
2022/06/19 04:49:04;;;;;;;9.73;4.73;;;24.00;93.70;;;;;;4953810;28;20930;-65
2022/06/19 04:51:30;;;;;;;13.33;4.87;;;24.10;93.40;;;;;;4952503;28;20456;-64
2022/06/19 04:53:55;;;;;;;7.23;5.50;;;24.20;92.80;;;;;;4956817;28;20216;-64
2022/06/19 04:56:22;;;;;;;13.43;5.30;;;24.20;92.80;;;;;;4953716;28;20185;-64
2022/06/19 04:58:48;;;;;;;12.60;5.40;;;24.30;93.20;;;;;;4952320;28;20232;-65
2022/06/19 05:01:23;;;;;;;10.77;4.93;;;24.50;91.60;;;;;;4951579;28;20452;-64
2022/06/19 05:03:48;;;;;;;11.13;4.90;;;24.50;91.60;;;;;;4953379;28;20553;-64
2022/06/19 05:06:14;;;;;;;11.10;6.27;;;24.70;91.20;;;;;;4953233;28;20503;-65
2022/06/19 05:08:39;;;;;;;14.80;6.47;;;24.70;91.40;;;;;;4952922;28;20276;-64
2022/06/19 05:11:05;;;;;;;8.00;5.50;;;24.60;90.00;;;;;;4954069;28;20176;-64
2022/06/19 05:13:30;;;;;;;11.53;5.10;;;24.60;90.40;;;;;;4952997;28;20205;-63
2022/06/19 05:16:06;;;;;;;7.70;5.57;;;24.70;90.50;;;;;;4955405;28;20192;-66
2022/06/19 05:18:32;;;;;;;13.60;5.10;;;24.70;90.40;;;;;;4953613;28;20275;-64
2022/06/19 05:21:01;;;;;;;8.60;5.57;;;24.70;90.70;;;;;;4951815;28;20452;-65
2022/06/19 05:23:27;;;;;;;9.53;5.70;;;24.70;90.60;;;;;;4952742;28;20472;-67
2022/06/19 05:26:01;;;;;;;12.97;7.87;;;24.70;89.60;;;;;;4954289;28;20555;-65
2022/06/19 05:28:29;;;;;;;20.63;5.77;;;24.80;90.00;;;;;;4952833;28;20470;-65
2022/06/19 05:30:56;;;;;;;10.10;6.27;;;24.90;89.70;;;;;;4954889;28;20444;-66
2022/06/19 05:33:22;;;;;;;9.50;5.90;;;24.90;89.80;;;;;;4961520;28;20447;-65
2022/06/19 05:35:47;;;;;;;9.07;5.90;;;25.00;88.80;;;;;;4952794;28;20448;-67
2022/06/19 05:38:13;;;;;;;14.33;5.77;;;25.10;88.30;;;;;;4952952;28;20189;-66
2022/06/19 05:40:40;;;;;;;9.17;5.77;;;25.30;88.10;;;;;;4952700;28;20220;-65
2022/06/19 05:43:05;;;;;;;9.70;5.83;;;25.40;86.80;;;;;;4951613;28;20252;-65
2022/06/19 05:45:31;;;;;;;10.20;6.00;;;25.40;86.70;;;;;;4952496;28;20962;-64
2022/06/19 05:47:56;;;;;;;9.50;5.40;;;25.50;86.50;;;;;;4961258;28;20189;-67
2022/06/19 05:50:22;;;;;;;8.30;4.50;;;25.70;85.20;;;;;;4953189;28;20675;-65
2022/06/19 05:52:47;;;;;;;9.90;6.07;;;25.70;83.80;;;;;;4952846;28;20189;-65
2022/06/19 05:55:13;;;;;;;13.27;6.43;;;25.90;84.10;;;;;;4951335;28;20244;-65
2022/06/19 05:57:39;;;;;;;13.00;5.80;;;25.90;83.40;;;;;;4953096;28;20181;-64
2022/06/19 06:00:08;;;;;;;9.43;5.83;;;25.90;84.00;;;;;;4952896;28;21024;-65
2022/06/19 06:02:34;;;;;;;12.23;5.97;;;25.90;83.90;;;;;;4957883;28;20195;-65
2022/06/19 06:05:00;;;;;;;8.27;4.73;;;26.00;84.00;;;;;;4952012;28;20472;-65
2022/06/19 06:07:26;;;;;;;11.70;5.50;;;26.30;83.70;;;;;;4952949;28;20471;-67
2022/06/19 06:09:51;;;;;;;12.50;5.93;;;26.50;82.10;;;;;;4951877;28;20405;-65
2022/06/19 06:12:17;;;;;;;13.77;5.87;;;26.60;81.80;;;;;;4952958;28;20177;-65
2022/06/19 06:14:42;;;;;;;10.07;4.97;;;26.70;81.70;;;;;;4952029;28;20216;-66
2022/06/19 06:17:08;;;;;;;11.50;6.00;;;26.70;81.80;;;;;;4952927;28;20180;-65
2022/06/19 06:19:34;;;;;;;12.73;5.73;;;27.00;81.10;;;;;;4953957;28;20181;-65
2022/06/19 06:22:04;;;;;;;12.13;5.50;;;27.20;80.90;;;;;;4952752;28;20453;-65
2022/06/19 06:24:30;;;;;;;13.67;5.40;;;27.50;81.10;;;;;;4953797;28;20197;-66
2022/06/19 06:26:57;;;;;;;13.30;5.37;;;27.70;79.50;;;;;;4950702;28;20466;-67
2022/06/19 06:29:23;;;;;;;14.90;5.87;;;27.80;79.40;;;;;;4952265;28;20785;-65
2022/06/19 06:31:49;;;;;;;12.20;6.03;;;27.80;80.00;;;;;;4953419;28;20441;-65
2022/06/19 06:34:15;;;;;;;11.17;5.30;;;27.90;79.90;;;;;;4957010;28;20460;-66
2022/06/19 06:36:40;;;;;;;12.37;5.70;;;28.10;80.80;;;;;;4955388;28;20237;-64
2022/06/19 06:39:06;;;;;;;13.93;5.60;;;28.10;78.80;;;;;;4951187;28;20244;-65
2022/06/19 06:41:31;;;;;;;14.53;6.20;;;28.10;78.90;;;;;;4953986;28;20193;-66
2022/06/19 06:43:57;;;;;;;10.50;5.03;;;28.30;77.50;;;;;;4953424;28;20204;-65
2022/06/19 06:46:25;;;;;;;10.73;5.87;;;28.50;76.60;;;;;;4957817;28;20287;-65
2022/06/19 06:48:55;;;;;;;11.73;5.80;;;28.50;75.70;;;;;;4950769;28;20180;-66
2022/06/19 06:51:26;;;;;;;18.40;7.77;;;28.70;75.20;;;;;;4950819;28;20441;-66
2022/06/19 06:53:52;;;;;;;9.83;5.60;;;28.90;75.40;;;;;;4949537;28;20844;-66
2022/06/19 06:56:20;;;;;;;12.50;6.10;;;29.20;74.00;;;;;;4956077;28;20957;-67
2022/06/19 06:58:45;;;;;;;11.10;6.70;;;29.60;72.90;;;;;;4952145;28;20451;-65
2022/06/19 07:01:15;;;;;;;9.03;5.90;;;29.60;71.90;;;;;;4952934;28;20448;-65
2022/06/19 07:03:42;;;;;;;11.93;6.30;;;29.60;72.10;;;;;;4950152;28;20640;-65
2022/06/19 07:06:08;;;;;;;16.17;7.00;;;29.30;71.30;;;;;;4945248;28;20464;-65
2022/06/19 07:08:33;;;;;;;10.73;5.30;;;29.00;72.70;;;;;;4951941;28;20436;-66
2022/06/19 07:10:59;;;;;;;11.60;5.67;;;28.70;73.70;;;;;;4950923;28;20244;-68
2022/06/19 07:13:24;;;;;;;11.47;5.90;;;28.80;74.40;;;;;;4952614;28;20213;-66
2022/06/19 07:15:51;;;;;;;17.77;7.00;;;29.10;73.90;;;;;;4952325;28;20193;-65
2022/06/19 07:18:18;;;;;;;10.70;5.87;;;29.60;72.10;;;;;;4950972;28;20196;-65
2022/06/19 07:20:43;;;;;;;13.50;6.80;;;29.80;71.30;;;;;;4958326;28;20448;-68
2022/06/19 07:23:09;;;;;;;13.17;7.13;;;30.00;70.80;;;;;;4946930;28;20456;-66
2022/06/19 07:25:34;;;;;;;10.13;6.77;;;29.90;70.70;;;;;;4948081;28;20185;-65
2022/06/19 07:28:00;;;;;;;10.53;6.93;;;29.80;70.80;;;;;;4951915;28;20635;-66
2022/06/19 07:30:27;;;;;;;15.43;7.50;;;29.90;70.90;;;;;;4957237;28;20268;-66
2022/06/19 07:32:54;;;;;;;13.70;6.20;;;30.00;71.20;;;;;;4959804;28;20179;-67
2022/06/19 07:35:19;;;;;;;12.40;6.70;;;30.20;70.70;;;;;;4958351;28;20468;-66
2022/06/19 07:37:45;;;;;;;15.17;7.73;;;30.20;71.20;;;;;;4960842;28;20523;-65
2022/06/19 07:40:14;;;;;;;17.90;8.23;;;30.50;70.70;;;;;;4964811;28;20639;-64
2022/06/19 07:42:39;;;;;;;13.80;8.90;;;30.80;71.20;;;;;;4955213;28;20192;-63
2022/06/19 07:45:05;;;;;;;8.97;7.00;;;31.20;69.80;;;;;;4956592;28;20882;-64
2022/06/19 07:50:17;;;;;;;9.27;8.30;;;31.60;68.10;;;;;;4946092;28;20308;-67
2022/06/19 07:52:45;;;;;;;10.67;7.43;;;31.80;67.20;;;;;;4950827;28;20459;-66
2022/06/19 07:55:15;;;;;;;8.27;7.47;;;31.60;67.10;;;;;;4954589;28;20440;-65
2022/06/19 07:57:41;;;;;;;14.33;8.27;;;31.50;67.50;;;;;;4959113;28;20432;-65
2022/06/19 08:00:16;;;;;;;9.03;8.13;;;31.60;68.10;;;;;;4946141;28;20451;-66
2022/06/19 08:02:45;;;;;;;14.90;8.10;;;31.80;68.00;;;;;;4952550;28;20533;-69
2022/06/19 08:05:12;;;;;;;10.40;8.03;;;32.10;66.90;;;;;;4953228;28;20827;-66
2022/06/19 08:07:38;;;;;;;18.40;9.83;;;32.30;66.80;;;;;;4951990;28;20491;-66
2022/06/19 08:10:05;;;;;;;15.73;10.10;;;32.60;66.20;;;;;;4956311;28;20453;-67
2022/06/19 08:12:31;;;;;;;12.80;10.50;;;33.00;62.50;;;;;;4959348;28;20473;-66
2022/06/19 08:14:56;;;;;;;14.63;11.77;;;33.30;62.00;;;;;;4961617;28;20466;-66
2022/06/19 08:17:22;;;;;;;12.87;10.90;;;33.70;61.00;;;;;;4961053;28;20537;-66
2022/06/19 08:19:47;;;;;;;16.97;10.33;;;33.90;59.70;;;;;;4956590;28;20196;-67
2022/06/19 08:22:13;;;;;;;12.33;11.23;;;34.20;59.20;;;;;;4957259;28;20203;-66
2022/06/19 08:24:39;;;;;;;17.93;11.70;;;34.70;57.90;;;;;;4962734;28;20615;-66
2022/06/19 08:27:05;;;;;;;12.40;11.20;;;34.50;57.70;;;;;;4958851;28;20283;-66
2022/06/19 08:29:31;;;;;;;17.90;12.00;;;34.50;57.60;;;;;;4959133;28;20264;-67
2022/06/19 08:31:57;;;;;;;12.53;11.47;;;34.70;56.80;;;;;;4962194;28;20811;-66
2022/06/19 08:34:22;;;;;;;13.60;12.20;;;34.90;56.00;;;;;;4964018;28;20490;-64
2022/06/19 08:36:48;;;;;;;13.20;11.00;;;34.80;55.40;;;;;;4966059;28;20264;-65
2022/06/19 08:39:17;;;;;;;13.57;11.37;;;34.60;55.70;;;;;;4962837;28;20670;-65
2022/06/19 08:42:04;;;;;;;12.70;11.53;;;34.90;55.70;;;;;;4961627;28;20444;-65
2022/06/19 08:45:00;;;;;;;16.10;11.60;;;35.00;54.60;;;;;;4965732;28;20463;-66
2022/06/19 08:47:27;;;;;;;14.03;12.50;;;35.50;53.30;;;;;;4963735;28;20867;-65
2022/06/19 08:50:05;;;;;;;12.67;11.57;;;35.50;51.80;;;;;;4965163;28;20435;-67
2022/06/19 08:52:31;;;;;;;15.47;10.80;;;35.60;52.80;;;;;;4962194;28;20481;-66
2022/06/19 08:55:17;;;;;;;12.90;11.53;;;35.70;51.00;;;;;;4961507;28;20550;-66
2022/06/19 08:58:06;;;;;;;15.60;11.60;;;35.90;51.40;;;;;;4962806;28;20173;-66
2022/06/19 09:01:04;;;;;;;16.20;12.03;;;36.20;50.10;;;;;;4954277;28;20975;-65
2022/06/19 09:06:48;;;;;;;12.10;10.20;;;36.10;48.90;;;;;;4954489;28;21060;-65
2022/06/19 09:09:26;;;;;;;13.20;11.80;;;36.30;45.70;;;;;;4953120;28;20555;-65
2022/06/19 09:12:20;;;;;;;16.30;12.83;;;36.50;45.10;;;;;;4965227;28;20435;-65
2022/06/19 09:15:06;;;;;;;13.60;11.10;;;36.60;44.50;;;;;;4961044;28;20792;-65
2022/06/19 09:18:00;;;;;;;16.07;10.77;;;36.70;42.80;;;;;;4960564;28;20435;-65
2022/06/19 09:20:41;;;;;;;12.93;9.97;;;36.50;42.50;;;;;;4957109;28;20896;-65
2022/06/19 09:23:25;;;;;;;10.57;9.53;;;36.30;42.20;;;;;;4967708;28;20553;-65
2022/06/19 09:25:50;;;;;;;10.00;8.93;;;36.30;42.20;;;;;;4960836;28;20518;-65
2022/06/19 09:28:28;;;;;;;20.87;9.97;;;36.20;42.40;;;;;;4964756;28;20444;-67
2022/06/19 09:31:05;;;;;;;10.77;9.47;;;36.40;41.70;;;;;;4962707;28;20188;-67
2022/06/19 09:33:53;;;;;;;11.17;9.90;;;36.30;41.60;;;;;;4965746;28;20443;-66
2022/06/19 09:36:43;;;;;;;15.20;9.80;;;36.50;41.70;;;;;;4964879;28;20985;-66
2022/06/19 09:39:37;;;;;;;11.20;7.93;;;36.30;41.40;;;;;;4960370;28;20451;-65
2022/06/19 09:42:18;;;;;;;9.40;8.50;;;36.20;39.80;;;;;;4952544;28;20496;-65
2022/06/19 09:45:01;;;;;;;14.60;8.70;;;36.10;40.30;;;;;;4948976;28;20472;-66
2022/06/19 09:47:46;;;;;;;10.77;8.63;;;36.50;40.50;;;;;;4954302;28;21048;-65
2022/06/19 09:50:15;;;;;;;10.13;8.80;;;36.60;39.80;;;;;;4955484;28;20453;-67
2022/06/19 09:52:53;;;;;;;15.20;10.23;;;37.00;39.70;;;;;;4954017;28;20448;-66
2022/06/19 09:55:32;;;;;;;12.10;9.80;;;37.00;40.20;;;;;;4944018;28;20440;-66
2022/06/19 09:58:15;;;;;;;12.33;9.27;;;37.30;39.90;;;;;;4952227;28;20449;-66
2022/06/19 10:00:44;;;;;;;9.70;8.70;;;37.90;39.00;;;;;;4949202;28;20444;-66
2022/06/19 10:03:20;;;;;;;12.03;10.10;;;38.20;39.00;;;;;;4950606;28;20844;-64
2022/06/19 10:06:01;;;;;;;11.63;10.53;;;38.40;38.50;;;;;;4955627;28;20447;-66
2022/06/19 10:08:32;;;;;;;11.67;9.40;;;38.30;38.40;;;;;;4958692;28;20499;-66
2022/06/19 10:11:07;;;;;;;12.57;8.87;;;38.90;37.70;;;;;;4960672;28;20451;-66
2022/06/19 10:13:39;;;;;;;11.13;9.73;;;38.80;37.50;;;;;;4952567;28;22334;-66
2022/06/19 10:16:15;;;;;;;10.27;8.90;;;39.00;37.40;;;;;;4960422;28;20455;-66
2022/06/19 10:18:47;;;;;;;9.60;8.57;;;39.10;37.20;;;;;;4952641;28;20451;-66
2022/06/19 10:24:57;;;;;;;10.10;8.07;;;39.60;36.00;;;;;;4950522;28;20459;-66
2022/06/19 10:27:51;;;;;;;10.10;9.30;;;39.70;35.60;;;;;;4926030;29;20884;-66
2022/06/19 10:30:27;;;;;;;12.70;8.87;;;39.40;35.50;;;;;;4928876;29;20458;-66
2022/06/19 10:33:07;;;;;;;11.00;8.03;;;39.30;36.10;;;;;;4945873;28;20447;-66
2022/06/19 10:35:54;;;;;;;11.80;9.00;;;39.70;34.80;;;;;;4954676;28;21684;-66
2022/06/19 10:38:33;;;;;;;12.80;9.00;;;39.40;34.60;;;;;;4952586;28;20807;-66
2022/06/19 10:44:37;;;;;;;13.43;9.70;;;39.50;35.00;;;;;;4952456;28;20459;-66
2022/06/19 10:47:38;;;;;;;11.07;9.97;;;39.70;34.90;;;;;;4947838;28;20539;-69
2022/06/19 10:50:37;;;;;;;13.40;8.60;;;39.90;34.60;;;;;;4947907;28;20582;-66
2022/06/19 10:53:24;;;;;;;12.13;10.00;;;39.80;34.10;;;;;;4953529;28;20508;-66
2022/06/19 10:56:04;;;;;;;9.43;8.00;;;40.20;33.90;;;;;;4950691;28;20447;-66
2022/06/19 10:58:30;;;;;;;13.47;9.07;;;41.00;33.50;;;;;;4951584;28;20539;-66
2022/06/19 11:00:59;;;;;;;12.40;8.90;;;41.30;32.50;;;;;;4956985;28;20498;-66
2022/06/19 11:04:10;;;;;;;10.23;8.27;;;41.00;32.30;;;;;;4957845;28;20460;-66
2022/06/19 11:07:00;;;;;;;8.10;7.40;;;41.50;32.30;;;;;;4958598;28;20530;-66
2022/06/19 11:09:32;;;;;;;11.10;7.90;;;42.10;31.80;;;;;;4956986;28;20532;-66
2022/06/19 11:12:25;;;;;;;14.00;8.60;;;41.60;31.60;;;;;;4953039;28;20443;-66
2022/06/19 11:14:56;;;;;;;10.87;8.77;;;42.10;31.10;;;;;;4956071;28;20484;-66
2022/06/19 11:17:35;;;;;;;8.40;7.57;;;41.80;31.00;;;;;;4960161;28;20523;-66
2022/06/19 11:20:24;;;;;;;8.77;8.07;;;41.60;31.20;;;;;;4950325;28;20523;-66
2022/06/19 11:23:03;;;;;;;10.30;8.00;;;41.40;31.60;;;;;;4958319;28;20890;-66
2022/06/19 11:25:39;;;;;;;10.83;7.60;;;41.30;31.30;;;;;;4960550;28;20452;-66
2022/06/19 11:28:07;;;;;;;8.63;7.87;;;41.60;31.20;;;;;;4963233;28;20533;-66
2022/06/19 11:30:46;;;;;;;12.43;8.77;;;41.10;31.00;;;;;;4954142;28;20955;-67
2022/06/19 11:33:18;;;;;;;9.87;7.93;;;41.60;31.00;;;;;;4951905;28;20887;-66
2022/06/19 11:35:55;;;;;;;12.50;7.87;;;42.10;30.80;;;;;;4949520;28;20444;-66
2022/06/19 11:38:38;;;;;;;10.73;8.10;;;43.20;30.60;;;;;;4956895;28;20439;-66
2022/06/19 11:41:30;;;;;;;13.60;9.20;;;44.40;30.00;;;;;;4955046;28;20826;-66
2022/06/19 11:44:16;;;;;;;9.33;8.43;;;43.50;29.70;;;;;;4964344;28;20460;-66
2022/06/19 11:46:53;;;;;;;14.10;8.17;;;43.70;30.00;;;;;;4958462;28;20471;-66
2022/06/19 11:49:40;;;;;;;15.37;9.03;;;45.20;29.20;;;;;;4953469;28;20799;-66
2022/06/19 11:52:16;;;;;;;12.00;7.83;;;45.10;28.60;;;;;;4956998;28;20480;-64
2022/06/19 11:54:45;;;;;;;10.67;7.50;;;44.10;29.10;;;;;;4953098;28;20546;-64
2022/06/19 11:57:27;;;;;;;10.67;8.93;;;42.80;29.30;;;;;;4954494;28;20484;-64
2022/06/19 11:59:56;;;;;;;10.60;8.10;;;42.00;30.10;;;;;;4955902;28;20445;-64
2022/06/19 12:02:36;;;;;;;8.77;7.97;;;42.90;29.70;;;;;;4955852;28;20448;-65
2022/06/19 12:05:06;;;;;;;12.17;8.40;;;43.70;29.40;;;;;;4956613;28;21224;-62
2022/06/19 12:07:36;;;;;;;9.10;8.30;;;43.40;29.50;;;;;;4951860;28;20475;-62
2022/06/19 12:10:13;;;;;;;10.27;9.10;;;44.70;28.90;;;;;;4956503;28;20538;-62
2022/06/19 12:12:38;;;;;;;13.63;8.40;;;45.60;28.60;;;;;;4955124;28;20440;-64
2022/06/19 12:15:13;;;;;;;8.63;7.70;;;46.40;28.00;;;;;;4962558;28;20554;-64
2022/06/19 12:17:42;;;;;;;11.70;8.50;;;45.50;28.40;;;;;;4957792;28;20271;-64
2022/06/19 12:20:08;;;;;;;8.17;7.47;;;45.70;28.00;;;;;;4951036;28;20506;-64
2022/06/19 12:22:40;;;;;;;9.13;8.33;;;45.90;28.20;;;;;;4955111;28;20448;-65
2022/06/19 12:25:15;;;;;;;12.63;8.70;;;45.10;28.20;;;;;;4953515;28;20256;-68
2022/06/19 12:28:14;;;;;;;8.27;7.37;;;45.80;28.40;;;;;;4955025;28;20467;-67
2022/06/19 12:30:45;;;;;;;10.17;8.60;;;45.50;28.20;;;;;;4964301;28;20795;-68
2022/06/19 12:33:25;;;;;;;10.73;7.57;;;47.10;27.80;;;;;;4966770;28;20989;-67
2022/06/19 12:35:51;;;;;;;10.03;7.40;;;46.40;27.80;;;;;;4962754;28;20491;-67
2022/06/19 12:38:21;;;;;;;12.47;8.80;;;46.00;27.60;;;;;;4960196;28;20452;-67
2022/06/19 12:40:58;;;;;;;9.83;8.47;;;46.30;27.20;;;;;;4953817;28;20185;-67
2022/06/19 12:43:30;;;;;;;12.83;8.27;;;47.40;27.40;;;;;;4961144;28;20458;-67
2022/06/19 12:45:58;;;;;;;8.40;7.57;;;46.50;27.20;;;;;;4967035;28;20463;-67
2022/06/19 12:48:37;;;;;;;11.13;7.70;;;45.90;27.40;;;;;;4965107;28;20933;-67
2022/06/19 12:51:26;;;;;;;9.40;8.50;;;46.00;27.30;;;;;;4959870;28;20443;-67
2022/06/19 12:54:10;;;;;;;12.90;7.90;;;46.30;27.40;;;;;;4959468;28;20488;-67
2022/06/19 12:56:58;;;;;;;11.27;7.70;;;46.30;27.10;;;;;;4950893;28;20472;-67
2022/06/19 12:59:24;;;;;;;11.07;7.40;;;48.00;26.80;;;;;;4952426;28;20447;-65
2022/06/19 13:02:28;;;;;;;10.20;7.70;;;46.70;26.50;;;;;;4953843;28;20845;-65
2022/06/19 13:05:11;;;;;;;13.37;8.20;;;46.70;26.90;;;;;;4940411;28;20212;-65
2022/06/19 13:08:07;;;;;;;9.80;7.87;;;46.20;26.60;;;;;;4962608;28;20981;-65
2022/06/19 13:10:44;;;;;;;10.10;7.47;;;45.20;26.50;;;;;;4959192;28;20446;-65
2022/06/19 13:13:39;;;;;;;11.63;8.10;;;45.10;27.00;;;;;;4955412;28;20455;-65